sensor_id;sensor_type;location;lat;lon;timestamp;P1;durP1;ratioP1;P2;durP2;ratioP2
21038;SDS011;10678;51.002;4.786;2022-08-01T00:01:49;548.85;;;501.02;;
21038;SDS011;10678;51.002;4.786;2022-08-01T00:04:15;551.25;;;501.05;;
21038;SDS011;10678;51.002;4.786;2022-08-01T00:06:41;531.00;;;482.05;;
21038;SDS011;10678;51.002;4.786;2022-08-01T00:09:06;548.97;;;499.92;;
21038;SDS011;10678;51.002;4.786;2022-08-01T00:11:32;551.95;;;503.00;;
21038;SDS011;10678;51.002;4.786;2022-08-01T00:13:58;562.80;;;511.65;;
21038;SDS011;10678;51.002;4.786;2022-08-01T00:16:23;564.95;;;515.75;;
21038;SDS011;10678;51.002;4.786;2022-08-01T00:18:49;552.13;;;502.15;;
21038;SDS011;10678;51.002;4.786;2022-08-01T00:21:16;566.28;;;512.70;;
21038;SDS011;10678;51.002;4.786;2022-08-01T00:23:42;541.67;;;490.45;;
21038;SDS011;10678;51.002;4.786;2022-08-01T00:26:08;590.63;;;537.42;;
21038;SDS011;10678;51.002;4.786;2022-08-01T00:28:34;541.70;;;494.10;;
21038;SDS011;10678;51.002;4.786;2022-08-01T00:30:59;570.30;;;521.05;;
21038;SDS011;10678;51.002;4.786;2022-08-01T00:33:25;546.40;;;498.80;;
21038;SDS011;10678;51.002;4.786;2022-08-01T00:35:51;566.45;;;515.78;;
21038;SDS011;10678;51.002;4.786;2022-08-01T00:38:16;536.38;;;489.90;;
21038;SDS011;10678;51.002;4.786;2022-08-01T00:40:42;557.10;;;507.17;;
21038;SDS011;10678;51.002;4.786;2022-08-01T00:43:07;573.28;;;522.15;;
21038;SDS011;10678;51.002;4.786;2022-08-01T00:45:34;587.97;;;535.25;;
21038;SDS011;10678;51.002;4.786;2022-08-01T00:47:59;549.45;;;501.35;;
21038;SDS011;10678;51.002;4.786;2022-08-01T00:50:25;524.22;;;475.77;;
21038;SDS011;10678;51.002;4.786;2022-08-01T00:52:51;527.70;;;483.08;;
21038;SDS011;10678;51.002;4.786;2022-08-01T00:55:16;526.50;;;480.90;;
21038;SDS011;10678;51.002;4.786;2022-08-01T00:57:43;542.65;;;492.30;;
21038;SDS011;10678;51.002;4.786;2022-08-01T01:00:09;588.85;;;537.17;;
21038;SDS011;10678;51.002;4.786;2022-08-01T01:02:35;567.90;;;515.63;;
21038;SDS011;10678;51.002;4.786;2022-08-01T01:05:01;587.67;;;535.15;;
21038;SDS011;10678;51.002;4.786;2022-08-01T01:07:32;577.38;;;524.78;;
21038;SDS011;10678;51.002;4.786;2022-08-01T01:13:20;556.97;;;508.95;;
21038;SDS011;10678;51.002;4.786;2022-08-01T01:16:14;560.90;;;510.33;;
21038;SDS011;10678;51.002;4.786;2022-08-01T01:18:55;577.80;;;525.33;;
21038;SDS011;10678;51.002;4.786;2022-08-01T01:29:36;509.27;;;462.67;;
21038;SDS011;10678;51.002;4.786;2022-08-01T01:32:07;514.22;;;466.67;;
21038;SDS011;10678;51.002;4.786;2022-08-01T01:35:05;525.83;;;478.67;;
21038;SDS011;10678;51.002;4.786;2022-08-01T01:37:34;594.50;;;540.03;;
21038;SDS011;10678;51.002;4.786;2022-08-01T01:40:02;551.72;;;503.15;;
21038;SDS011;10678;51.002;4.786;2022-08-01T01:42:29;515.67;;;470.30;;
21038;SDS011;10678;51.002;4.786;2022-08-01T01:44:58;554.53;;;504.75;;
21038;SDS011;10678;51.002;4.786;2022-08-01T01:47:28;556.92;;;503.98;;
21038;SDS011;10678;51.002;4.786;2022-08-01T01:49:55;593.67;;;540.15;;
21038;SDS011;10678;51.002;4.786;2022-08-01T01:52:23;536.38;;;491.02;;
21038;SDS011;10678;51.002;4.786;2022-08-01T01:54:51;541.95;;;494.35;;
21038;SDS011;10678;51.002;4.786;2022-08-01T01:57:19;558.13;;;508.65;;
21038;SDS011;10678;51.002;4.786;2022-08-01T01:59:45;527.88;;;480.35;;
21038;SDS011;10678;51.002;4.786;2022-08-01T02:02:12;560.72;;;510.20;;
21038;SDS011;10678;51.002;4.786;2022-08-01T02:04:41;520.63;;;474.23;;
21038;SDS011;10678;51.002;4.786;2022-08-01T02:07:09;495.52;;;450.27;;
21038;SDS011;10678;51.002;4.786;2022-08-01T02:09:37;508.17;;;461.70;;
21038;SDS011;10678;51.002;4.786;2022-08-01T02:12:05;514.92;;;469.10;;
21038;SDS011;10678;51.002;4.786;2022-08-01T02:14:32;553.92;;;503.63;;
21038;SDS011;10678;51.002;4.786;2022-08-01T02:17:04;553.55;;;505.55;;
21038;SDS011;10678;51.002;4.786;2022-08-01T02:19:30;526.92;;;479.80;;
21038;SDS011;10678;51.002;4.786;2022-08-01T02:22:01;565.40;;;515.33;;
21038;SDS011;10678;51.002;4.786;2022-08-01T02:27:09;557.35;;;508.17;;
21038;SDS011;10678;51.002;4.786;2022-08-01T02:29:41;513.83;;;468.75;;
21038;SDS011;10678;51.002;4.786;2022-08-01T02:32:20;537.30;;;489.95;;
21038;SDS011;10678;51.002;4.786;2022-08-01T02:34:55;522.78;;;478.10;;
21038;SDS011;10678;51.002;4.786;2022-08-01T02:37:25;520.35;;;470.67;;
21038;SDS011;10678;51.002;4.786;2022-08-01T02:39:53;561.50;;;512.08;;
21038;SDS011;10678;51.002;4.786;2022-08-01T02:42:19;591.47;;;538.08;;
21038;SDS011;10678;51.002;4.786;2022-08-01T02:44:47;540.45;;;493.80;;
21038;SDS011;10678;51.002;4.786;2022-08-01T02:47:14;600.25;;;545.97;;
21038;SDS011;10678;51.002;4.786;2022-08-01T02:49:42;571.15;;;521.95;;
21038;SDS011;10678;51.002;4.786;2022-08-01T02:52:12;548.08;;;499.40;;
21038;SDS011;10678;51.002;4.786;2022-08-01T02:54:39;593.70;;;540.13;;
21038;SDS011;10678;51.002;4.786;2022-08-01T02:57:07;570.63;;;519.15;;
21038;SDS011;10678;51.002;4.786;2022-08-01T02:59:34;613.80;;;558.47;;
21038;SDS011;10678;51.002;4.786;2022-08-01T03:02:03;573.25;;;523.60;;
21038;SDS011;10678;51.002;4.786;2022-08-01T03:04:30;581.30;;;529.33;;
21038;SDS011;10678;51.002;4.786;2022-08-01T03:06:58;598.17;;;548.45;;
21038;SDS011;10678;51.002;4.786;2022-08-01T03:09:28;591.58;;;538.78;;
21038;SDS011;10678;51.002;4.786;2022-08-01T03:11:55;631.03;;;576.20;;
21038;SDS011;10678;51.002;4.786;2022-08-01T03:14:24;650.63;;;592.75;;
21038;SDS011;10678;51.002;4.786;2022-08-01T03:16:51;655.90;;;595.92;;
21038;SDS011;10678;51.002;4.786;2022-08-01T03:19:18;627.80;;;573.25;;
21038;SDS011;10678;51.002;4.786;2022-08-01T03:21:47;644.60;;;586.55;;
21038;SDS011;10678;51.002;4.786;2022-08-01T03:24:14;652.13;;;594.17;;
21038;SDS011;10678;51.002;4.786;2022-08-01T03:26:43;694.78;;;630.38;;
21038;SDS011;10678;51.002;4.786;2022-08-01T03:29:12;668.38;;;609.03;;
21038;SDS011;10678;51.002;4.786;2022-08-01T03:31:41;709.28;;;642.28;;
21038;SDS011;10678;51.002;4.786;2022-08-01T03:34:09;681.80;;;620.63;;
21038;SDS011;10678;51.002;4.786;2022-08-01T03:36:37;735.67;;;666.25;;
21038;SDS011;10678;51.002;4.786;2022-08-01T03:39:11;711.28;;;639.97;;
21038;SDS011;10678;51.002;4.786;2022-08-01T03:41:40;821.15;;;718.03;;
21038;SDS011;10678;51.002;4.786;2022-08-01T03:44:11;809.25;;;726.15;;
21038;SDS011;10678;51.002;4.786;2022-08-01T03:46:42;799.70;;;715.72;;
21038;SDS011;10678;51.002;4.786;2022-08-01T03:49:12;1065.35;;;775.72;;
21038;SDS011;10678;51.002;4.786;2022-08-01T03:51:45;969.83;;;740.40;;
21038;SDS011;10678;51.002;4.786;2022-08-01T03:54:14;1221.07;;;784.70;;
21038;SDS011;10678;51.002;4.786;2022-08-01T03:56:45;1278.43;;;748.05;;
21038;SDS011;10678;51.002;4.786;2022-08-01T03:59:14;1415.22;;;834.45;;
21038;SDS011;10678;51.002;4.786;2022-08-01T04:01:41;1701.22;;;923.15;;
21038;SDS011;10678;51.002;4.786;2022-08-01T04:04:08;1592.53;;;939.17;;
21038;SDS011;10678;51.002;4.786;2022-08-01T04:06:37;1469.20;;;895.88;;
21038;SDS011;10678;51.002;4.786;2022-08-01T04:09:03;1389.70;;;869.25;;
21038;SDS011;10678;51.002;4.786;2022-08-01T04:11:29;1304.10;;;841.72;;
21038;SDS011;10678;51.002;4.786;2022-08-01T04:13:55;1702.55;;;907.80;;
21038;SDS011;10678;51.002;4.786;2022-08-01T04:16:22;1493.35;;;908.33;;
21038;SDS011;10678;51.002;4.786;2022-08-01T04:18:48;1980.85;;;997.67;;
21038;SDS011;10678;51.002;4.786;2022-08-01T04:21:13;1525.85;;;926.65;;
21038;SDS011;10678;51.002;4.786;2022-08-01T04:23:43;1530.00;;;941.22;;
21038;SDS011;10678;51.002;4.786;2022-08-01T04:26:10;1304.07;;;896.17;;
21038;SDS011;10678;51.002;4.786;2022-08-01T04:28:39;1496.35;;;960.50;;
21038;SDS011;10678;51.002;4.786;2022-08-01T04:31:07;1388.95;;;921.85;;
21038;SDS011;10678;51.002;4.786;2022-08-01T04:33:36;1255.80;;;889.08;;
21038;SDS011;10678;51.002;4.786;2022-08-01T04:36:07;1205.55;;;883.47;;
21038;SDS011;10678;51.002;4.786;2022-08-01T04:38:36;1579.47;;;932.05;;
21038;SDS011;10678;51.002;4.786;2022-08-01T04:41:04;1411.50;;;905.20;;
21038;SDS011;10678;51.002;4.786;2022-08-01T04:43:31;1163.00;;;865.17;;
21038;SDS011;10678;51.002;4.786;2022-08-01T04:45:58;1179.63;;;866.13;;
21038;SDS011;10678;51.002;4.786;2022-08-01T04:48:28;1094.72;;;850.72;;
21038;SDS011;10678;51.002;4.786;2022-08-01T04:50:54;952.90;;;833.67;;
21038;SDS011;10678;51.002;4.786;2022-08-01T04:53:20;913.08;;;779.55;;
21038;SDS011;10678;51.002;4.786;2022-08-01T04:55:48;856.95;;;766.53;;
21038;SDS011;10678;51.002;4.786;2022-08-01T04:58:14;831.40;;;745.72;;
21038;SDS011;10678;51.002;4.786;2022-08-01T05:00:40;765.28;;;692.28;;
21038;SDS011;10678;51.002;4.786;2022-08-01T05:03:06;767.75;;;694.83;;
21038;SDS011;10678;51.002;4.786;2022-08-01T05:05:31;792.85;;;715.45;;
21038;SDS011;10678;51.002;4.786;2022-08-01T05:07:57;818.88;;;738.55;;
21038;SDS011;10678;51.002;4.786;2022-08-01T05:10:23;829.60;;;740.42;;
21038;SDS011;10678;51.002;4.786;2022-08-01T05:12:48;754.22;;;678.80;;
21038;SDS011;10678;51.002;4.786;2022-08-01T05:15:14;716.95;;;648.80;;
21038;SDS011;10678;51.002;4.786;2022-08-01T05:17:41;660.92;;;601.35;;
21038;SDS011;10678;51.002;4.786;2022-08-01T05:20:10;683.53;;;620.15;;
21038;SDS011;10678;51.002;4.786;2022-08-01T05:22:36;687.92;;;623.78;;
21038;SDS011;10678;51.002;4.786;2022-08-01T05:25:02;766.67;;;688.50;;
21038;SDS011;10678;51.002;4.786;2022-08-01T05:27:29;797.60;;;716.58;;
21038;SDS011;10678;51.002;4.786;2022-08-01T05:29:55;790.22;;;714.15;;
21038;SDS011;10678;51.002;4.786;2022-08-01T05:32:21;765.90;;;691.95;;
21038;SDS011;10678;51.002;4.786;2022-08-01T05:34:47;806.13;;;723.88;;
21038;SDS011;10678;51.002;4.786;2022-08-01T05:37:13;691.80;;;629.67;;
21038;SDS011;10678;51.002;4.786;2022-08-01T05:39:38;624.78;;;572.65;;
21038;SDS011;10678;51.002;4.786;2022-08-01T05:42:04;647.33;;;589.40;;
21038;SDS011;10678;51.002;4.786;2022-08-01T05:44:30;717.65;;;650.05;;
21038;SDS011;10678;51.002;4.786;2022-08-01T05:46:56;665.38;;;608.03;;
21038;SDS011;10678;51.002;4.786;2022-08-01T05:49:21;630.55;;;574.45;;
21038;SDS011;10678;51.002;4.786;2022-08-01T05:51:47;728.45;;;659.92;;
21038;SDS011;10678;51.002;4.786;2022-08-01T05:54:13;748.08;;;674.05;;
21038;SDS011;10678;51.002;4.786;2022-08-01T05:56:39;694.58;;;633.50;;
21038;SDS011;10678;51.002;4.786;2022-08-01T05:59:04;833.45;;;739.08;;
21038;SDS011;10678;51.002;4.786;2022-08-01T06:01:30;821.75;;;741.20;;
21038;SDS011;10678;51.002;4.786;2022-08-01T06:03:56;567.85;;;523.25;;
21038;SDS011;10678;51.002;4.786;2022-08-01T06:06:21;505.02;;;466.33;;
21038;SDS011;10678;51.002;4.786;2022-08-01T06:08:47;585.60;;;535.65;;
21038;SDS011;10678;51.002;4.786;2022-08-01T06:11:12;582.10;;;534.33;;
21038;SDS011;10678;51.002;4.786;2022-08-01T06:13:38;575.00;;;528.88;;
21038;SDS011;10678;51.002;4.786;2022-08-01T06:16:04;570.25;;;524.95;;
21038;SDS011;10678;51.002;4.786;2022-08-01T06:18:30;616.38;;;566.45;;
21038;SDS011;10678;51.002;4.786;2022-08-01T06:20:55;557.65;;;512.38;;
21038;SDS011;10678;51.002;4.786;2022-08-01T06:23:21;527.47;;;485.40;;
21038;SDS011;10678;51.002;4.786;2022-08-01T06:25:47;583.47;;;534.42;;
21038;SDS011;10678;51.002;4.786;2022-08-01T06:28:13;481.40;;;444.45;;
21038;SDS011;10678;51.002;4.786;2022-08-01T06:30:39;628.65;;;575.50;;
21038;SDS011;10678;51.002;4.786;2022-08-01T06:33:04;627.75;;;573.85;;
21038;SDS011;10678;51.002;4.786;2022-08-01T06:35:30;571.00;;;524.42;;
21038;SDS011;10678;51.002;4.786;2022-08-01T06:37:56;568.03;;;519.92;;
21038;SDS011;10678;51.002;4.786;2022-08-01T06:40:22;526.17;;;483.30;;
21038;SDS011;10678;51.002;4.786;2022-08-01T06:42:48;507.33;;;463.70;;
21038;SDS011;10678;51.002;4.786;2022-08-01T06:45:14;533.15;;;490.25;;
21038;SDS011;10678;51.002;4.786;2022-08-01T06:47:41;604.20;;;552.90;;
21038;SDS011;10678;51.002;4.786;2022-08-01T06:50:08;608.28;;;555.17;;
21038;SDS011;10678;51.002;4.786;2022-08-01T06:52:34;545.40;;;496.77;;
21038;SDS011;10678;51.002;4.786;2022-08-01T06:55:01;502.23;;;458.75;;
21038;SDS011;10678;51.002;4.786;2022-08-01T06:57:27;537.15;;;486.38;;
21038;SDS011;10678;51.002;4.786;2022-08-01T06:59:53;638.42;;;578.00;;
21038;SDS011;10678;51.002;4.786;2022-08-01T07:02:19;639.53;;;578.45;;
21038;SDS011;10678;51.002;4.786;2022-08-01T07:04:45;485.58;;;442.00;;
21038;SDS011;10678;51.002;4.786;2022-08-01T07:07:10;715.65;;;624.58;;
21038;SDS011;10678;51.002;4.786;2022-08-01T07:09:36;427.00;;;379.58;;
21038;SDS011;10678;51.002;4.786;2022-08-01T07:12:02;504.48;;;454.65;;
21038;SDS011;10678;51.002;4.786;2022-08-01T07:14:29;544.53;;;491.23;;
21038;SDS011;10678;51.002;4.786;2022-08-01T07:16:54;360.15;;;321.60;;
21038;SDS011;10678;51.002;4.786;2022-08-01T07:19:20;393.00;;;345.98;;
21038;SDS011;10678;51.002;4.786;2022-08-01T07:21:45;377.27;;;339.40;;
21038;SDS011;10678;51.002;4.786;2022-08-01T07:24:12;503.10;;;453.42;;
21038;SDS011;10678;51.002;4.786;2022-08-01T07:26:39;442.17;;;378.30;;
21038;SDS011;10678;51.002;4.786;2022-08-01T07:29:08;412.50;;;372.15;;
21038;SDS011;10678;51.002;4.786;2022-08-01T07:31:34;465.98;;;423.98;;
21038;SDS011;10678;51.002;4.786;2022-08-01T07:34:00;573.45;;;521.22;;
21038;SDS011;10678;51.002;4.786;2022-08-01T07:36:25;384.50;;;344.98;;
21038;SDS011;10678;51.002;4.786;2022-08-01T07:38:51;436.98;;;362.60;;
21038;SDS011;10678;51.002;4.786;2022-08-01T07:41:17;424.25;;;382.38;;
21038;SDS011;10678;51.002;4.786;2022-08-01T07:43:42;478.90;;;403.63;;
21038;SDS011;10678;51.002;4.786;2022-08-01T07:46:08;593.50;;;457.35;;
21038;SDS011;10678;51.002;4.786;2022-08-01T07:48:33;484.92;;;380.15;;
21038;SDS011;10678;51.002;4.786;2022-08-01T07:50:59;812.75;;;590.67;;
21038;SDS011;10678;51.002;4.786;2022-08-01T07:53:25;780.00;;;549.63;;
21038;SDS011;10678;51.002;4.786;2022-08-01T07:55:50;552.83;;;414.02;;
21038;SDS011;10678;51.002;4.786;2022-08-01T07:58:16;445.05;;;359.20;;
21038;SDS011;10678;51.002;4.786;2022-08-01T08:00:42;709.70;;;532.42;;
21038;SDS011;10678;51.002;4.786;2022-08-01T08:03:08;431.15;;;321.60;;
21038;SDS011;10678;51.002;4.786;2022-08-01T08:05:34;1051.68;;;671.38;;
21038;SDS011;10678;51.002;4.786;2022-08-01T08:08:06;1264.88;;;780.13;;
21038;SDS011;10678;51.002;4.786;2022-08-01T08:10:33;1894.40;;;998.58;;
21038;SDS011;10678;51.002;4.786;2022-08-01T08:12:59;1901.28;;;985.65;;
21038;SDS011;10678;51.002;4.786;2022-08-01T08:15:26;1691.25;;;881.17;;
21038;SDS011;10678;51.002;4.786;2022-08-01T08:17:52;1999.90;;;998.83;;
21038;SDS011;10678;51.002;4.786;2022-08-01T08:20:17;1970.97;;;976.75;;
21038;SDS011;10678;51.002;4.786;2022-08-01T08:22:43;1972.15;;;998.58;;
21038;SDS011;10678;51.002;4.786;2022-08-01T08:25:09;1389.85;;;751.75;;
21038;SDS011;10678;51.002;4.786;2022-08-01T08:27:35;450.80;;;363.23;;
21038;SDS011;10678;51.002;4.786;2022-08-01T08:30:01;1955.88;;;999.90;;
21038;SDS011;10678;51.002;4.786;2022-08-01T08:32:28;1999.90;;;961.90;;
21038;SDS011;10678;51.002;4.786;2022-08-01T08:34:53;1999.90;;;999.90;;
21038;SDS011;10678;51.002;4.786;2022-08-01T08:37:19;1999.90;;;999.90;;
21038;SDS011;10678;51.002;4.786;2022-08-01T08:39:45;1999.90;;;999.90;;
21038;SDS011;10678;51.002;4.786;2022-08-01T08:42:10;1999.90;;;999.90;;
21038;SDS011;10678;51.002;4.786;2022-08-01T08:44:37;1909.93;;;917.30;;
21038;SDS011;10678;51.002;4.786;2022-08-01T08:47:05;1746.00;;;877.05;;
21038;SDS011;10678;51.002;4.786;2022-08-01T08:49:35;1999.90;;;999.90;;
21038;SDS011;10678;51.002;4.786;2022-08-01T08:52:02;1999.90;;;999.90;;
21038;SDS011;10678;51.002;4.786;2022-08-01T08:54:29;1999.90;;;999.90;;
21038;SDS011;10678;51.002;4.786;2022-08-01T08:56:56;1999.90;;;999.90;;
21038;SDS011;10678;51.002;4.786;2022-08-01T08:59:23;1999.90;;;999.90;;
21038;SDS011;10678;51.002;4.786;2022-08-01T09:01:50;1999.90;;;999.90;;
21038;SDS011;10678;51.002;4.786;2022-08-01T09:04:16;1985.72;;;438.05;;
21038;SDS011;10678;51.002;4.786;2022-08-01T09:06:42;1999.90;;;508.35;;
21038;SDS011;10678;51.002;4.786;2022-08-01T09:09:08;1999.90;;;999.90;;
21038;SDS011;10678;51.002;4.786;2022-08-01T09:11:35;1999.90;;;999.90;;
21038;SDS011;10678;51.002;4.786;2022-08-01T09:14:06;1999.90;;;999.90;;
21038;SDS011;10678;51.002;4.786;2022-08-01T09:16:34;1757.95;;;807.72;;
21038;SDS011;10678;51.002;4.786;2022-08-01T09:19:19;1999.90;;;999.90;;
21038;SDS011;10678;51.002;4.786;2022-08-01T09:21:55;1999.90;;;999.90;;
21038;SDS011;10678;51.002;4.786;2022-08-01T09:24:24;1999.90;;;999.90;;
21038;SDS011;10678;51.002;4.786;2022-08-01T09:26:51;1999.90;;;999.90;;
21038;SDS011;10678;51.002;4.786;2022-08-01T09:29:18;1999.90;;;999.90;;
21038;SDS011;10678;51.002;4.786;2022-08-01T09:31:48;1999.90;;;999.90;;
21038;SDS011;10678;51.002;4.786;2022-08-01T09:34:14;1999.90;;;611.33;;
21038;SDS011;10678;51.002;4.786;2022-08-01T09:36:43;1999.90;;;795.47;;
21038;SDS011;10678;51.002;4.786;2022-08-01T09:39:13;1985.53;;;472.08;;
21038;SDS011;10678;51.002;4.786;2022-08-01T09:41:39;1213.22;;;168.32;;
21038;SDS011;10678;51.002;4.786;2022-08-01T09:44:06;1999.90;;;999.90;;
21038;SDS011;10678;51.002;4.786;2022-08-01T09:46:31;1562.95;;;758.80;;
21038;SDS011;10678;51.002;4.786;2022-08-01T09:49:01;1293.25;;;222.75;;
21038;SDS011;10678;51.002;4.786;2022-08-01T09:51:33;1999.90;;;999.90;;
21038;SDS011;10678;51.002;4.786;2022-08-01T09:54:00;612.00;;;115.68;;
21038;SDS011;10678;51.002;4.786;2022-08-01T09:59:02;1999.90;;;999.90;;
21038;SDS011;10678;51.002;4.786;2022-08-01T10:01:39;1742.35;;;798.17;;
21038;SDS011;10678;51.002;4.786;2022-08-01T10:06:35;1999.90;;;999.90;;
21038;SDS011;10678;51.002;4.786;2022-08-01T10:09:01;1999.90;;;999.90;;
21038;SDS011;10678;51.002;4.786;2022-08-01T10:11:28;1597.40;;;769.70;;
21038;SDS011;10678;51.002;4.786;2022-08-01T10:13:55;1999.90;;;999.90;;
21038;SDS011;10678;51.002;4.786;2022-08-01T10:16:24;611.92;;;127.18;;
21038;SDS011;10678;51.002;4.786;2022-08-01T10:18:51;1999.90;;;999.90;;
21038;SDS011;10678;51.002;4.786;2022-08-01T10:21:18;1999.90;;;999.90;;
21038;SDS011;10678;51.002;4.786;2022-08-01T10:23:45;1999.90;;;999.90;;
21038;SDS011;10678;51.002;4.786;2022-08-01T10:26:11;1999.90;;;999.90;;
21038;SDS011;10678;51.002;4.786;2022-08-01T10:28:38;1999.90;;;999.90;;
21038;SDS011;10678;51.002;4.786;2022-08-01T10:31:07;1999.90;;;999.90;;
21038;SDS011;10678;51.002;4.786;2022-08-01T10:33:32;1999.90;;;999.90;;
21038;SDS011;10678;51.002;4.786;2022-08-01T10:36:01;1999.90;;;999.90;;
21038;SDS011;10678;51.002;4.786;2022-08-01T10:38:27;1999.90;;;999.90;;
21038;SDS011;10678;51.002;4.786;2022-08-01T10:40:53;1999.90;;;999.90;;
21038;SDS011;10678;51.002;4.786;2022-08-01T10:43:22;1999.90;;;999.90;;
21038;SDS011;10678;51.002;4.786;2022-08-01T10:45:47;1999.90;;;999.90;;
21038;SDS011;10678;51.002;4.786;2022-08-01T10:48:16;1999.90;;;999.90;;
21038;SDS011;10678;51.002;4.786;2022-08-01T10:50:53;1999.90;;;999.90;;
21038;SDS011;10678;51.002;4.786;2022-08-01T10:53:23;1999.90;;;999.90;;
21038;SDS011;10678;51.002;4.786;2022-08-01T11:01:25;1999.90;;;999.90;;
21038;SDS011;10678;51.002;4.786;2022-08-01T11:14:24;1999.90;;;999.90;;
21038;SDS011;10678;51.002;4.786;2022-08-01T11:16:50;1999.90;;;999.90;;
21038;SDS011;10678;51.002;4.786;2022-08-01T11:19:15;1999.90;;;999.90;;
21038;SDS011;10678;51.002;4.786;2022-08-01T11:27:17;1999.90;;;999.90;;
21038;SDS011;10678;51.002;4.786;2022-08-01T11:32:45;1401.00;;;599.95;;
21038;SDS011;10678;51.002;4.786;2022-08-01T11:35:11;970.38;;;353.48;;
21038;SDS011;10678;51.002;4.786;2022-08-01T11:37:37;1257.22;;;440.73;;
21038;SDS011;10678;51.002;4.786;2022-08-01T11:40:16;1999.90;;;999.90;;
21038;SDS011;10678;51.002;4.786;2022-08-01T11:42:43;1033.25;;;366.70;;
21038;SDS011;10678;51.002;4.786;2022-08-01T11:45:09;1999.90;;;999.90;;
21038;SDS011;10678;51.002;4.786;2022-08-01T11:50:29;1999.90;;;708.53;;
21038;SDS011;10678;51.002;4.786;2022-08-01T11:52:57;1667.97;;;774.97;;
21038;SDS011;10678;51.002;4.786;2022-08-01T11:55:24;1844.80;;;679.58;;
21038;SDS011;10678;51.002;4.786;2022-08-01T11:57:51;1239.55;;;209.07;;
21038;SDS011;10678;51.002;4.786;2022-08-01T12:00:24;1999.90;;;897.90;;
21038;SDS011;10678;51.002;4.786;2022-08-01T12:03:08;1999.07;;;538.50;;
21038;SDS011;10678;51.002;4.786;2022-08-01T12:05:34;1999.90;;;999.90;;
21038;SDS011;10678;51.002;4.786;2022-08-01T12:08:02;1871.75;;;434.65;;
21038;SDS011;10678;51.002;4.786;2022-08-01T12:10:30;1647.28;;;343.17;;
21038;SDS011;10678;51.002;4.786;2022-08-01T12:13:02;1959.53;;;433.50;;
21038;SDS011;10678;51.002;4.786;2022-08-01T12:15:30;1999.90;;;999.90;;
21038;SDS011;10678;51.002;4.786;2022-08-01T12:17:59;1999.90;;;999.90;;
21038;SDS011;10678;51.002;4.786;2022-08-01T12:20:27;1999.90;;;999.90;;
21038;SDS011;10678;51.002;4.786;2022-08-01T12:22:55;1999.90;;;999.90;;
21038;SDS011;10678;51.002;4.786;2022-08-01T12:25:22;1999.90;;;999.90;;
21038;SDS011;10678;51.002;4.786;2022-08-01T12:27:48;1999.90;;;999.90;;
21038;SDS011;10678;51.002;4.786;2022-08-01T12:30:15;1139.10;;;523.47;;
21038;SDS011;10678;51.002;4.786;2022-08-01T12:32:44;1999.90;;;999.90;;
21038;SDS011;10678;51.002;4.786;2022-08-01T12:37:44;1999.90;;;999.90;;
21038;SDS011;10678;51.002;4.786;2022-08-01T12:40:15;1999.90;;;999.90;;
21038;SDS011;10678;51.002;4.786;2022-08-01T12:42:43;1999.90;;;999.90;;
21038;SDS011;10678;51.002;4.786;2022-08-01T12:45:12;1999.90;;;999.90;;
21038;SDS011;10678;51.002;4.786;2022-08-01T12:47:49;1999.90;;;999.90;;
21038;SDS011;10678;51.002;4.786;2022-08-01T12:50:21;1999.90;;;999.90;;
21038;SDS011;10678;51.002;4.786;2022-08-01T12:52:48;1999.90;;;999.90;;
21038;SDS011;10678;51.002;4.786;2022-08-01T12:55:22;1999.90;;;999.90;;
21038;SDS011;10678;51.002;4.786;2022-08-01T12:57:50;1999.90;;;999.90;;
21038;SDS011;10678;51.002;4.786;2022-08-01T13:00:32;1999.90;;;999.90;;
21038;SDS011;10678;51.002;4.786;2022-08-01T13:03:05;1999.90;;;999.90;;
21038;SDS011;10678;51.002;4.786;2022-08-01T13:08:20;1999.90;;;999.90;;
21038;SDS011;10678;51.002;4.786;2022-08-01T13:10:49;1999.90;;;999.90;;
21038;SDS011;10678;51.002;4.786;2022-08-01T13:13:16;1999.90;;;999.90;;
21038;SDS011;10678;51.002;4.786;2022-08-01T13:15:43;1999.90;;;999.90;;
21038;SDS011;10678;51.002;4.786;2022-08-01T13:18:22;1999.90;;;999.90;;
21038;SDS011;10678;51.002;4.786;2022-08-01T13:21:13;1999.90;;;999.90;;
21038;SDS011;10678;51.002;4.786;2022-08-01T13:26:46;1999.90;;;999.90;;
21038;SDS011;10678;51.002;4.786;2022-08-01T13:29:18;1999.90;;;999.90;;
21038;SDS011;10678;51.002;4.786;2022-08-01T13:31:45;1999.90;;;999.90;;
21038;SDS011;10678;51.002;4.786;2022-08-01T13:34:12;1999.90;;;999.90;;
21038;SDS011;10678;51.002;4.786;2022-08-01T13:36:38;1999.90;;;999.90;;
21038;SDS011;10678;51.002;4.786;2022-08-01T13:39:04;1999.90;;;999.90;;
21038;SDS011;10678;51.002;4.786;2022-08-01T13:41:50;1999.90;;;999.90;;
21038;SDS011;10678;51.002;4.786;2022-08-01T13:44:16;1999.90;;;999.90;;
21038;SDS011;10678;51.002;4.786;2022-08-01T13:46:42;1999.90;;;999.90;;
21038;SDS011;10678;51.002;4.786;2022-08-01T13:49:09;1999.90;;;999.90;;
21038;SDS011;10678;51.002;4.786;2022-08-01T13:51:35;1999.90;;;999.90;;
21038;SDS011;10678;51.002;4.786;2022-08-01T13:54:01;1999.90;;;999.90;;
21038;SDS011;10678;51.002;4.786;2022-08-01T13:56:28;1999.90;;;999.90;;
21038;SDS011;10678;51.002;4.786;2022-08-01T13:58:54;1999.90;;;999.90;;
21038;SDS011;10678;51.002;4.786;2022-08-01T14:01:20;1999.90;;;999.90;;
21038;SDS011;10678;51.002;4.786;2022-08-01T14:03:47;1999.90;;;999.90;;
21038;SDS011;10678;51.002;4.786;2022-08-01T14:06:12;1999.90;;;999.90;;
21038;SDS011;10678;51.002;4.786;2022-08-01T14:08:40;1999.90;;;999.90;;
21038;SDS011;10678;51.002;4.786;2022-08-01T14:11:09;1999.90;;;999.90;;
21038;SDS011;10678;51.002;4.786;2022-08-01T14:13:35;1999.90;;;999.90;;
21038;SDS011;10678;51.002;4.786;2022-08-01T14:16:03;1999.90;;;999.90;;
21038;SDS011;10678;51.002;4.786;2022-08-01T14:18:29;1999.90;;;999.90;;
21038;SDS011;10678;51.002;4.786;2022-08-01T14:20:55;1724.30;;;789.05;;
21038;SDS011;10678;51.002;4.786;2022-08-01T14:23:21;1999.90;;;999.90;;
21038;SDS011;10678;51.002;4.786;2022-08-01T14:25:46;400.10;;;54.78;;
21038;SDS011;10678;51.002;4.786;2022-08-01T14:28:12;1061.90;;;507.75;;
21038;SDS011;10678;51.002;4.786;2022-08-01T14:30:38;1999.90;;;999.90;;
21038;SDS011;10678;51.002;4.786;2022-08-01T14:33:03;1999.90;;;378.95;;
21038;SDS011;10678;51.002;4.786;2022-08-01T14:35:29;1903.13;;;804.90;;
21038;SDS011;10678;51.002;4.786;2022-08-01T14:37:55;1999.90;;;403.38;;
21038;SDS011;10678;51.002;4.786;2022-08-01T14:40:20;1846.85;;;800.35;;
21038;SDS011;10678;51.002;4.786;2022-08-01T14:42:46;1999.90;;;731.50;;
21038;SDS011;10678;51.002;4.786;2022-08-01T14:45:12;1917.35;;;321.33;;
21038;SDS011;10678;51.002;4.786;2022-08-01T14:47:39;1999.90;;;999.90;;
21038;SDS011;10678;51.002;4.786;2022-08-01T14:50:07;1999.90;;;999.90;;